Curtin, Western Australia

2:20 PM AWST on September 23, 2014 (GMT +0800)
Curtin | Change Station
CLOSE
Current Station
Airport
Location: Curtin,
Elevation: 299 ft
Nearby Weather Stations

Elev 299 ft 17.58 °S, 123.83 °E | Updated 20 minutes ago

Clear
Clear
91 °F
Feels Like 91 °F
N
14
Wind Variable Wind from South

Today
High -- | Low -- °F
--% Chance of Precip.
Yesterday
High -- | Low -- °F
Precip. -- in
5:33 AM 5:40 PM
Waning Crescent, 1% visible
Pressure 29.89 in
Visibility -9999.0 miles
Clouds
Dew Point 30 °F
Humidity 11%
Rainfall 0.00 in
Snow Depth Not available.
UV Not available.
Pollen Not available.
Air Quality Not available.
Flu Activity Not available.
METAR YCIN 230600Z AUTO 18012KT //// // NCD 33/M01 Q1012

More Conditions Fewer Conditions

Pressure 29.89 in
Visibility -9999.0 miles
Clouds
Dew Point 30 °F
Humidity 11%
Rainfall 0.00 in
Snow Depth Not available.
UV Not available.
Pollen Not available.
Air Quality Not available.
Flu Activity Not available.
METAR YCIN 230600Z AUTO 18012KT //// // NCD 33/M01 Q1012

More Conditions Fewer Conditions

10-Day Weather Forecast

Almanac

Astronomy

Sep. 23, 2014 Rise Set
Actual Time 5:33 AM AWST 5:40 PM AWST
Civil Twilight 5:12 AM AWST 6:02 PM AWST
Nautical Twilight 4:47 AM AWST 6:27 PM AWST
Astronomical Twilight 4:21 AM AWST 6:52 PM AWST
Moon 4:40 AM AWST 4:54 PM AWST
Length of Visible Light 12h 50m
Length of Day
12h 06m
Tomorrow will be 0m 59s longer.
Waning Crescent, 1% of the Moon is Illuminated
Today
Waning Crescent
Sep 24
New
Oct 1
First Quarter
Oct 8
Full
Oct 15
Last Quarter

Yesterday's Extremes

Country Highs Country Lows

Community

WunderPhotos

Upload Photos

1,755,608 photos uploaded!

Nearby

Snow Depth

Not available.

Earthquake Activity

City Distance Mag. Time & Date
No recent earthquake activity has been reported nearby.
Minimum magnitude displayed is 2.5.

Coastal Water Temperatures

Place Temperature
No Stations Reporting

Nearby Weather Stations